Time;durP1;ratioP1;P1;durP2;ratioP2;P2;SDS_P1;SDS_P2;PMS_P1;PMS_P2;Temp;Humidity;BMP_temperature;BMP_pressure;BME280_temperature;BME280_humidity;BME280_pressure;Samples;Min_cycle;Max_cycle;Signal;HPM_P1;HPM_P2
2023/09/11 00:00:43;;;;;;;31.73;19.95;;;20.00;99.90;;;;;;5001512;28;20037;-69
2023/09/11 00:03:09;;;;;;;31.75;21.20;;;20.00;99.90;;;;;;4996451;28;20041;-69
2023/09/11 00:05:34;;;;;;;31.27;21.38;;;20.00;99.90;;;;;;4990256;28;20045;-69
2023/09/11 00:08:00;;;;;;;34.22;21.55;;;20.00;99.90;;;;;;5011711;28;20048;-69
2023/09/11 00:10:26;;;;;;;40.17;21.85;;;20.10;99.90;;;;;;4992668;28;20085;-68
2023/09/11 00:12:51;;;;;;;37.10;21.95;;;20.10;99.90;;;;;;5011439;28;20088;-68
2023/09/11 00:15:17;;;;;;;39.53;20.92;;;20.10;99.90;;;;;;4993756;28;20046;-68
2023/09/11 00:17:43;;;;;;;30.75;21.80;;;20.00;99.90;;;;;;4990991;28;20416;-69
2023/09/11 00:20:09;;;;;;;37.60;22.70;;;20.00;99.90;;;;;;5000318;28;20057;-67
2023/09/11 00:22:35;;;;;;;36.35;23.50;;;19.90;99.90;;;;;;4975368;28;20046;-68
2023/09/11 00:25:01;;;;;;;38.95;22.63;;;19.90;99.90;;;;;;4973681;28;20554;-69
2023/09/11 00:27:26;;;;;;;35.90;23.15;;;19.80;99.90;;;;;;4993045;28;20038;-69
2023/09/11 00:29:52;;;;;;;34.80;22.30;;;19.80;99.90;;;;;;4993338;28;20425;-68
2023/09/11 00:32:18;;;;;;;33.90;22.77;;;19.80;99.90;;;;;;4975388;28;20064;-68
2023/09/11 00:34:43;;;;;;;36.35;21.98;;;19.80;99.90;;;;;;4993597;28;20522;-68
2023/09/11 00:37:09;;;;;;;33.95;23.08;;;19.80;99.90;;;;;;4975443;28;20045;-68
2023/09/11 00:39:35;;;;;;;34.45;23.25;;;19.80;99.90;;;;;;4977889;28;20034;-68
2023/09/11 00:42:00;;;;;;;38.30;24.08;;;19.80;99.90;;;;;;4974654;28;20061;-68
2023/09/11 00:44:26;;;;;;;39.00;23.70;;;19.80;99.90;;;;;;4992830;28;20515;-68
2023/09/11 00:46:52;;;;;;;35.47;23.17;;;19.80;99.90;;;;;;4973077;28;20538;-68
2023/09/11 00:49:20;;;;;;;41.05;24.42;;;19.80;99.90;;;;;;4993204;28;20134;-68
2023/09/11 00:51:46;;;;;;;33.17;23.67;;;19.80;99.90;;;;;;4993333;28;20519;-68
2023/09/11 00:54:13;;;;;;;42.58;24.48;;;19.80;99.90;;;;;;4993588;28;20046;-69
2023/09/11 00:56:38;;;;;;;42.60;26.08;;;19.80;99.90;;;;;;4992362;28;20038;-68
2023/09/11 00:59:04;;;;;;;38.45;24.48;;;19.90;99.90;;;;;;4993324;28;20395;-68
2023/09/11 01:01:31;;;;;;;38.63;23.80;;;19.90;99.90;;;;;;4976062;28;20047;-68
2023/09/11 01:03:58;;;;;;;42.35;25.33;;;19.90;99.90;;;;;;4971641;28;20456;-67
2023/09/11 01:06:23;;;;;;;37.10;25.50;;;19.80;99.90;;;;;;4975022;28;20089;-69
2023/09/11 01:08:51;;;;;;;38.85;24.30;;;19.80;99.90;;;;;;4975359;28;20074;-68
2023/09/11 01:11:19;;;;;;;35.70;25.88;;;19.80;99.90;;;;;;4973673;28;20042;-68
2023/09/11 01:13:45;;;;;;;41.33;24.00;;;19.80;99.90;;;;;;4992817;28;20053;-68
2023/09/11 01:16:48;;;;;;;38.55;22.60;;;19.70;99.90;;;;;;4975043;28;20042;-68
2023/09/11 01:19:32;;;;;;;38.63;24.85;;;19.70;99.90;;;;;;4975167;28;20046;-68
2023/09/11 01:22:33;;;;;;;38.88;23.50;;;19.70;99.90;;;;;;4978746;28;20136;-68
2023/09/11 01:25:20;;;;;;;32.97;22.20;;;19.60;99.90;;;;;;4975212;28;20126;-68
2023/09/11 01:27:54;;;;;;;36.75;23.10;;;19.60;99.90;;;;;;4974620;28;20469;-67
2023/09/11 01:30:21;;;;;;;36.25;24.58;;;19.50;99.90;;;;;;4979010;28;20057;-68
2023/09/11 01:32:49;;;;;;;34.97;24.88;;;19.50;99.90;;;;;;4992775;28;20040;-68
2023/09/11 01:35:15;;;;;;;42.13;25.65;;;19.60;99.90;;;;;;4975450;28;20132;-68
2023/09/11 01:37:40;;;;;;;40.60;27.75;;;19.70;99.90;;;;;;4977426;28;20454;-69
2023/09/11 01:40:06;;;;;;;41.80;25.50;;;19.60;99.90;;;;;;4991601;28;20113;-68
2023/09/11 01:42:42;;;;;;;39.85;26.20;;;19.60;99.90;;;;;;4974617;28;20069;-68
2023/09/11 01:45:13;;;;;;;39.70;26.98;;;19.60;99.90;;;;;;4958688;28;20038;-68
2023/09/11 01:47:39;;;;;;;36.28;23.20;;;19.70;99.90;;;;;;4991917;28;20089;-68
2023/09/11 01:50:07;;;;;;;40.58;24.25;;;19.60;99.90;;;;;;4992455;28;20053;-68
2023/09/11 01:52:35;;;;;;;35.28;23.88;;;19.50;99.90;;;;;;4975503;28;20057;-69
2023/09/11 01:55:02;;;;;;;34.90;23.15;;;19.40;99.90;;;;;;5001314;28;20045;-68
2023/09/11 01:57:28;;;;;;;31.77;22.55;;;19.40;99.90;;;;;;4991194;28;20042;-68
2023/09/11 01:59:53;;;;;;;31.73;22.15;;;19.30;99.90;;;;;;4992418;28;20042;-68
2023/09/11 02:02:19;;;;;;;32.33;23.27;;;19.20;99.90;;;;;;4989805;28;20516;-69
2023/09/11 02:04:45;;;;;;;34.20;22.85;;;19.10;99.90;;;;;;4991824;28;20416;-68
2023/09/11 02:07:10;;;;;;;30.95;20.75;;;19.10;99.90;;;;;;4990879;28;20038;-68
2023/09/11 02:09:36;;;;;;;28.30;21.10;;;19.00;99.90;;;;;;4974649;28;21068;-68
2023/09/11 02:12:02;;;;;;;31.90;21.20;;;18.90;99.90;;;;;;5001635;28;20033;-68
2023/09/11 02:14:28;;;;;;;31.33;22.10;;;18.90;99.90;;;;;;4996860;28;20113;-69
2023/09/11 02:16:54;;;;;;;34.67;21.80;;;18.90;99.90;;;;;;4977731;28;20056;-68
2023/09/11 02:19:19;;;;;;;27.05;20.50;;;18.90;99.90;;;;;;4989608;28;20053;-69
2023/09/11 02:21:45;;;;;;;33.10;18.73;;;18.90;99.90;;;;;;4994171;28;20042;-68
2023/09/11 02:24:10;;;;;;;35.45;20.92;;;18.80;99.90;;;;;;4973546;28;20419;-68
2023/09/11 02:26:36;;;;;;;31.85;22.23;;;18.70;99.90;;;;;;4988911;28;20139;-68
2023/09/11 02:29:02;;;;;;;34.20;22.23;;;18.70;99.90;;;;;;4990675;28;20045;-69
2023/09/11 02:31:27;;;;;;;32.33;22.42;;;18.70;99.90;;;;;;4991901;28;20521;-68
2023/09/11 02:33:53;;;;;;;34.40;21.20;;;18.70;99.90;;;;;;4992012;28;20046;-68
2023/09/11 02:36:18;;;;;;;30.63;20.63;;;18.70;99.90;;;;;;4992444;28;20105;-68
2023/09/11 02:38:44;;;;;;;31.48;21.38;;;18.60;99.90;;;;;;4993548;28;20489;-68
2023/09/11 02:41:09;;;;;;;35.03;22.52;;;18.70;99.90;;;;;;4974128;28;20046;-67
2023/09/11 02:43:35;;;;;;;33.05;22.27;;;18.70;99.90;;;;;;4991610;28;20041;-68
2023/09/11 02:46:00;;;;;;;37.30;23.77;;;18.70;99.90;;;;;;4973565;28;20088;-68
2023/09/11 02:48:27;;;;;;;31.90;23.88;;;18.70;99.90;;;;;;4991256;28;20137;-69
2023/09/11 02:50:53;;;;;;;34.60;24.38;;;18.70;99.90;;;;;;4971979;28;20038;-68
2023/09/11 02:53:18;;;;;;;35.97;23.92;;;18.70;99.90;;;;;;5007557;28;20099;-68
2023/09/11 02:55:44;;;;;;;29.45;21.17;;;18.70;99.90;;;;;;4995463;28;20053;-68
2023/09/11 02:58:09;;;;;;;32.28;20.05;;;18.60;99.90;;;;;;4977379;28;20129;-68
2023/09/11 03:00:36;;;;;;;30.80;20.33;;;18.60;99.90;;;;;;5000200;28;20038;-68
2023/09/11 03:03:03;;;;;;;32.22;19.85;;;18.50;99.90;;;;;;4997887;28;20034;-69
2023/09/11 03:05:31;;;;;;;35.50;21.48;;;18.40;99.90;;;;;;4994823;28;20123;-67
2023/09/11 03:07:57;;;;;;;33.28;21.63;;;18.30;99.90;;;;;;4995474;28;20038;-68
2023/09/11 03:10:22;;;;;;;32.88;21.35;;;18.40;99.90;;;;;;4981750;28;20046;-67
2023/09/11 03:12:48;;;;;;;30.60;20.83;;;18.40;99.90;;;;;;4995861;28;20035;-67
2023/09/11 03:15:13;;;;;;;29.52;20.55;;;18.40;99.90;;;;;;4994552;28;20053;-67
2023/09/11 03:17:40;;;;;;;28.92;19.60;;;18.40;99.90;;;;;;4997231;28;20042;-68
2023/09/11 03:20:07;;;;;;;29.92;21.42;;;18.30;99.90;;;;;;4993206;28;20083;-68
2023/09/11 03:22:32;;;;;;;32.00;21.63;;;18.40;99.90;;;;;;4976740;28;20042;-68
2023/09/11 03:24:58;;;;;;;31.63;22.77;;;18.40;99.90;;;;;;4977132;28;20038;-68
2023/09/11 03:27:24;;;;;;;37.05;21.42;;;18.30;99.90;;;;;;4973479;28;20042;-68
2023/09/11 03:29:52;;;;;;;35.45;21.73;;;18.30;99.90;;;;;;4994624;28;20049;-69
2023/09/11 03:32:18;;;;;;;29.27;21.35;;;18.30;99.90;;;;;;4976855;28;20046;-68
2023/09/11 03:34:43;;;;;;;29.52;19.65;;;18.20;99.90;;;;;;4995251;28;20046;-68
2023/09/11 03:37:09;;;;;;;39.95;25.15;;;18.20;99.90;;;;;;4993870;28;20042;-68
2023/09/11 03:39:34;;;;;;;32.50;23.40;;;18.20;99.90;;;;;;4995095;28;20034;-68
2023/09/11 03:42:00;;;;;;;39.17;25.15;;;18.30;99.90;;;;;;4992990;28;20093;-69
2023/09/11 03:44:25;;;;;;;39.72;25.42;;;18.30;99.90;;;;;;4979117;28;20041;-69
2023/09/11 03:46:51;;;;;;;41.67;25.52;;;18.30;99.90;;;;;;4981454;28;20049;-67
2023/09/11 03:49:16;;;;;;;41.53;27.70;;;18.30;99.90;;;;;;4992110;28;20603;-67
2023/09/11 03:51:42;;;;;;;46.80;28.10;;;18.40;99.90;;;;;;4990252;28;20095;-68
2023/09/11 03:54:10;;;;;;;42.60;26.77;;;18.40;99.90;;;;;;5011880;28;20050;-68
2023/09/11 03:56:36;;;;;;;41.95;26.20;;;18.50;99.90;;;;;;4992339;28;20065;-68
2023/09/11 03:59:02;;;;;;;33.00;25.33;;;18.40;99.90;;;;;;4994526;28;20600;-68
2023/09/11 04:01:28;;;;;;;37.58;24.23;;;18.40;99.90;;;;;;4994572;28;20035;-68
2023/09/11 04:03:53;;;;;;;33.67;21.25;;;18.40;99.90;;;;;;4977122;28;20050;-67
2023/09/11 04:06:19;;;;;;;31.65;20.63;;;18.30;99.90;;;;;;4976522;28;20558;-68
2023/09/11 04:08:45;;;;;;;31.52;22.45;;;18.20;99.90;;;;;;4981493;28;20408;-68
2023/09/11 04:11:10;;;;;;;34.92;22.23;;;18.20;99.90;;;;;;4984564;28;20046;-68
2023/09/11 04:13:36;;;;;;;36.38;23.30;;;18.20;99.90;;;;;;4994242;28;20042;-67
2023/09/11 04:16:01;;;;;;;34.63;23.80;;;18.20;99.90;;;;;;4996364;28;20061;-68
2023/09/11 04:18:27;;;;;;;40.58;24.60;;;18.20;99.90;;;;;;4990718;28;20099;-68
2023/09/11 04:21:03;;;;;;;33.53;24.65;;;18.10;99.90;;;;;;4976048;28;20043;-68
2023/09/11 04:23:29;;;;;;;40.42;26.75;;;18.10;99.90;;;;;;4982059;28;20042;-68
2023/09/11 04:25:55;;;;;;;36.38;23.52;;;18.10;99.90;;;;;;4996980;28;20042;-68
2023/09/11 04:28:21;;;;;;;42.20;25.27;;;18.20;99.90;;;;;;4993561;28;20504;-69
2023/09/11 04:30:46;;;;;;;39.38;25.05;;;18.10;99.90;;;;;;4991327;28;20045;-68
2023/09/11 04:33:12;;;;;;;46.75;27.80;;;18.10;99.90;;;;;;4997232;28;20045;-68
2023/09/11 04:35:37;;;;;;;39.55;25.17;;;18.20;99.90;;;;;;4996817;28;20077;-68
2023/09/11 04:38:03;;;;;;;34.70;24.52;;;18.10;99.90;;;;;;4975548;28;20046;-68
2023/09/11 04:40:29;;;;;;;39.45;24.77;;;18.10;99.90;;;;;;4993745;28;20050;-68
2023/09/11 04:42:55;;;;;;;33.30;24.98;;;18.00;99.90;;;;;;4977548;28;20050;-68
2023/09/11 04:45:21;;;;;;;39.40;24.63;;;18.00;99.90;;;;;;4993251;28;20038;-68
2023/09/11 04:47:46;;;;;;;43.78;25.40;;;18.00;99.90;;;;;;4992937;28;20056;-68
2023/09/11 04:50:12;;;;;;;36.20;24.52;;;18.00;99.90;;;;;;4995803;28;20056;-68
2023/09/11 04:52:37;;;;;;;39.83;24.90;;;18.00;99.90;;;;;;5015316;28;20053;-69
2023/09/11 04:55:03;;;;;;;39.30;23.75;;;18.00;99.90;;;;;;4981663;28;20038;-68
2023/09/11 04:57:29;;;;;;;40.33;25.60;;;18.00;99.90;;;;;;4989874;28;20031;-68
2023/09/11 04:59:54;;;;;;;33.47;23.25;;;17.90;99.90;;;;;;4975210;28;20108;-68
2023/09/11 05:02:20;;;;;;;39.22;25.45;;;17.90;99.90;;;;;;4975840;28;20046;-68
2023/09/11 05:04:48;;;;;;;40.78;24.63;;;17.90;99.90;;;;;;4993107;28;20382;-69
2023/09/11 05:07:14;;;;;;;37.90;23.98;;;18.00;99.90;;;;;;4996876;28;20568;-69
2023/09/11 05:09:40;;;;;;;40.78;24.98;;;17.90;99.90;;;;;;5011124;28;20061;-68
2023/09/11 05:12:06;;;;;;;38.22;23.73;;;18.00;99.90;;;;;;5017973;28;20049;-70
2023/09/11 05:14:31;;;;;;;33.08;24.92;;;17.90;99.90;;;;;;4987804;28;20050;-69
2023/09/11 05:16:57;;;;;;;30.50;22.58;;;17.90;99.90;;;;;;4987532;28;20061;-69
2023/09/11 05:19:22;;;;;;;36.67;24.10;;;17.90;99.90;;;;;;4977292;28;20043;-68
2023/09/11 05:21:48;;;;;;;34.63;24.08;;;17.90;99.90;;;;;;4972710;28;20524;-70
2023/09/11 05:24:13;;;;;;;35.90;23.40;;;17.90;99.90;;;;;;4991931;28;20097;-72
2023/09/11 05:26:39;;;;;;;36.20;24.23;;;17.90;99.90;;;;;;4972507;28;20077;-68
2023/09/11 05:29:04;;;;;;;35.08;24.00;;;17.90;99.90;;;;;;5001218;28;20389;-70
2023/09/11 05:31:30;;;;;;;35.65;24.95;;;17.90;99.90;;;;;;4992943;28;20042;-70
2023/09/11 05:33:56;;;;;;;32.75;23.00;;;18.00;99.90;;;;;;4994395;28;20047;-69
2023/09/11 05:36:21;;;;;;;36.88;23.77;;;18.00;99.90;;;;;;4993405;28;20038;-68
2023/09/11 05:38:47;;;;;;;38.90;23.25;;;18.10;99.90;;;;;;4990666;28;20027;-68
2023/09/11 05:41:13;;;;;;;35.35;24.00;;;18.10;99.90;;;;;;4981912;28;20535;-67
2023/09/11 05:43:40;;;;;;;33.33;23.52;;;18.20;99.90;;;;;;4977529;28;20444;-68
2023/09/11 05:46:06;;;;;;;34.83;23.75;;;18.20;99.90;;;;;;4997562;28;20038;-68
2023/09/11 05:48:32;;;;;;;37.42;23.75;;;18.30;99.90;;;;;;4999718;28;20510;-68
2023/09/11 05:50:57;;;;;;;36.78;23.92;;;18.30;99.90;;;;;;5008046;28;20044;-68
2023/09/11 05:53:23;;;;;;;34.67;24.65;;;18.40;99.90;;;;;;5022462;28;20034;-68
2023/09/11 05:55:49;;;;;;;33.60;23.45;;;18.50;99.90;;;;;;4974855;28;20485;-67
2023/09/11 05:58:15;;;;;;;38.28;23.90;;;18.50;99.90;;;;;;4991462;28;20448;-67
2023/09/11 06:00:40;;;;;;;38.55;22.70;;;18.60;99.90;;;;;;4991312;28;20764;-69
2023/09/11 06:03:06;;;;;;;39.42;23.08;;;18.60;99.90;;;;;;4991937;28;20042;-69
2023/09/11 06:05:35;;;;;;;34.65;24.10;;;18.70;99.90;;;;;;4995856;28;20390;-69
2023/09/11 06:08:00;;;;;;;42.63;24.77;;;18.80;99.90;;;;;;4992894;28;20077;-69
2023/09/11 06:10:26;;;;;;;44.83;23.80;;;18.90;99.90;;;;;;4998436;23;20096;-69
2023/09/11 06:12:51;;;;;;;52.40;25.75;;;19.00;99.90;;;;;;5006830;28;20041;-68
2023/09/11 06:15:17;;;;;;;43.63;25.90;;;19.10;99.90;;;;;;5032000;28;20041;-67
2023/09/11 06:17:43;;;;;;;45.83;25.13;;;19.30;99.90;;;;;;5013532;28;20049;-68
2023/09/11 06:20:09;;;;;;;46.83;26.17;;;19.40;99.90;;;;;;5010137;28;20080;-67
2023/09/11 06:22:36;;;;;;;49.20;25.88;;;19.50;99.90;;;;;;5015120;28;20049;-67
2023/09/11 06:25:04;;;;;;;43.33;25.20;;;19.60;99.90;;;;;;5030920;28;20472;-68
2023/09/11 06:27:30;;;;;;;48.00;25.85;;;19.70;99.90;;;;;;5013129;28;20462;-69
2023/09/11 06:29:55;;;;;;;44.75;25.88;;;19.80;99.90;;;;;;5032806;28;20188;-69
2023/09/11 06:32:21;;;;;;;43.20;25.83;;;20.00;99.90;;;;;;5033218;28;20048;-69
2023/09/11 06:34:47;;;;;;;39.35;24.42;;;20.00;99.90;;;;;;5041323;28;20089;-69
2023/09/11 06:37:12;;;;;;;45.60;26.10;;;20.10;99.90;;;;;;5043455;28;20045;-69
2023/09/11 06:39:38;;;;;;;37.80;25.95;;;20.20;99.90;;;;;;5021832;28;20494;-69
2023/09/11 06:42:04;;;;;;;36.95;25.73;;;20.20;99.90;;;;;;5038416;28;20061;-69
2023/09/11 06:44:30;;;;;;;45.63;26.08;;;20.30;99.90;;;;;;5017624;28;20033;-69
2023/09/11 06:46:56;;;;;;;43.88;26.60;;;20.40;99.90;;;;;;5034833;28;20044;-68
2023/09/11 06:49:22;;;;;;;47.42;26.98;;;20.50;99.90;;;;;;5034716;28;20041;-68
2023/09/11 06:51:47;;;;;;;45.42;27.38;;;20.50;99.90;;;;;;5034889;28;20073;-68
2023/09/11 06:54:13;;;;;;;44.05;26.75;;;20.60;99.90;;;;;;5046808;28;20045;-67
2023/09/11 06:56:42;;;;;;;47.22;27.52;;;20.70;99.90;;;;;;5035948;28;20061;-69
2023/09/11 06:59:07;;;;;;;51.92;27.95;;;20.90;99.90;;;;;;5031354;28;20430;-69
2023/09/11 07:01:38;;;;;;;44.17;28.33;;;21.00;99.90;;;;;;5017963;28;20095;-69
2023/09/11 07:04:10;;;;;;;44.90;28.92;;;21.10;99.90;;;;;;5034922;28;20041;-67
2023/09/11 07:06:37;;;;;;;47.40;28.30;;;21.20;99.90;;;;;;5032500;28;20112;-67
2023/09/11 07:09:06;;;;;;;44.50;28.90;;;21.30;99.90;;;;;;5035399;28;20509;-69
2023/09/11 07:11:32;;;;;;;44.10;27.98;;;21.40;99.90;;;;;;5014003;28;20132;-69
2023/09/11 07:13:58;;;;;;;45.42;28.85;;;21.50;99.90;;;;;;5024623;28;20120;-69
2023/09/11 07:16:24;;;;;;;45.75;27.70;;;21.60;99.90;;;;;;5034394;28;20152;-69
2023/09/11 07:18:51;;;;;;;40.92;27.45;;;21.70;99.90;;;;;;5035347;28;20099;-69
2023/09/11 07:21:16;;;;;;;45.13;27.30;;;21.80;99.90;;;;;;5051132;28;20037;-68
2023/09/11 07:23:42;;;;;;;43.28;27.80;;;21.80;99.90;;;;;;5035886;28;20041;-67
2023/09/11 07:26:07;;;;;;;47.55;27.25;;;21.90;99.90;;;;;;5014290;28;20454;-68
2023/09/11 07:28:52;;;;;;;46.13;28.02;;;22.00;99.90;;;;;;5027879;28;20040;-67
2023/09/11 07:31:17;;;;;;;46.33;27.35;;;22.10;99.90;;;;;;5036207;28;20041;-67
2023/09/11 07:33:43;;;;;;;39.83;27.70;;;22.10;99.90;;;;;;5054795;28;20469;-67
2023/09/11 07:36:08;;;;;;;39.35;27.00;;;22.30;99.90;;;;;;5042005;28;20057;-67
2023/09/11 07:38:34;;;;;;;40.92;26.45;;;22.40;99.90;;;;;;5033853;28;20037;-68
2023/09/11 07:41:00;;;;;;;37.05;26.20;;;22.50;99.90;;;;;;5018249;28;20050;-68
2023/09/11 07:43:25;;;;;;;40.97;26.85;;;22.50;99.90;;;;;;5034848;28;20117;-68
2023/09/11 07:45:51;;;;;;;43.97;26.65;;;22.60;99.90;;;;;;5034220;28;20399;-67
2023/09/11 07:48:17;;;;;;;41.97;26.25;;;22.70;99.90;;;;;;5033709;28;20408;-68
2023/09/11 07:50:42;;;;;;;36.83;26.17;;;22.80;99.90;;;;;;5016423;28;20037;-68
2023/09/11 07:53:08;;;;;;;39.88;24.52;;;22.90;99.90;;;;;;5028551;28;20138;-68
2023/09/11 07:55:37;;;;;;;37.17;25.48;;;22.90;99.90;;;;;;5033700;28;20041;-68
2023/09/11 07:58:03;;;;;;;47.50;26.15;;;23.00;99.90;;;;;;5033586;28;20499;-67
2023/09/11 08:00:30;;;;;;;40.65;24.85;;;23.10;99.90;;;;;;5035585;28;20040;-68
2023/09/11 08:02:56;;;;;;;34.42;24.35;;;23.30;99.90;;;;;;5030437;28;20033;-68
2023/09/11 08:05:22;;;;;;;39.58;23.95;;;23.30;99.90;;;;;;5017320;28;20033;-68
2023/09/11 08:07:50;;;;;;;47.15;24.92;;;23.40;99.90;;;;;;5015541;28;20037;-68
2023/09/11 08:10:16;;;;;;;34.13;24.15;;;23.50;99.90;;;;;;5033248;28;20034;-68
2023/09/11 08:12:41;;;;;;;38.25;23.73;;;23.50;99.90;;;;;;5031031;28;20403;-67
2023/09/11 08:15:08;;;;;;;35.63;23.48;;;23.60;99.90;;;;;;5032818;28;20037;-68
2023/09/11 08:17:33;;;;;;;37.67;23.80;;;23.60;99.90;;;;;;5034325;28;20053;-68
2023/09/11 08:19:59;;;;;;;44.30;22.52;;;23.70;99.90;;;;;;5032835;28;20495;-67
2023/09/11 08:22:24;;;;;;;31.73;22.05;;;23.70;99.90;;;;;;5015545;28;20773;-68
2023/09/11 08:24:50;;;;;;;33.05;22.63;;;23.80;99.90;;;;;;5033696;28;20039;-67
2023/09/11 08:27:16;;;;;;;33.33;21.05;;;23.90;99.90;;;;;;5030765;28;20511;-67
2023/09/11 08:29:41;;;;;;;33.58;21.67;;;24.00;99.90;;;;;;5033022;28;20037;-67
2023/09/11 08:32:07;;;;;;;31.42;21.08;;;24.10;99.90;;;;;;5033309;28;20124;-67
2023/09/11 08:34:32;;;;;;;29.27;19.67;;;24.10;99.90;;;;;;5009603;28;20084;-67
2023/09/11 08:36:58;;;;;;;28.25;20.13;;;24.20;99.90;;;;;;5031431;28;20045;-68
2023/09/11 08:39:24;;;;;;;23.75;17.85;;;24.20;99.90;;;;;;5032134;28;20115;-67
2023/09/11 08:41:51;;;;;;;28.20;18.80;;;24.30;99.90;;;;;;5014232;28;20411;-67
2023/09/11 08:44:17;;;;;;;32.78;18.42;;;24.40;99.90;;;;;;5032890;28;20096;-67
2023/09/11 08:46:46;;;;;;;27.70;15.63;;;24.40;99.90;;;;;;5030191;28;21101;-67
2023/09/11 08:49:16;;;;;;;32.88;16.92;;;24.60;99.90;;;;;;5030354;28;20037;-67
2023/09/11 08:51:51;;;;;;;33.13;17.13;;;24.60;99.90;;;;;;5031586;28;20048;-68
2023/09/11 08:54:17;;;;;;;25.02;15.02;;;24.70;99.90;;;;;;5040436;28;20055;-69
2023/09/11 08:56:43;;;;;;;25.27;14.90;;;24.90;99.90;;;;;;5032655;28;20037;-67
2023/09/11 08:59:13;;;;;;;29.92;16.05;;;25.00;99.90;;;;;;5012969;28;20041;-67
2023/09/11 09:01:41;;;;;;;29.05;15.88;;;25.00;99.90;;;;;;5031915;28;20510;-68
2023/09/11 09:04:07;;;;;;;25.80;15.65;;;25.20;99.90;;;;;;5014847;28;20049;-67
2023/09/11 09:06:34;;;;;;;24.08;16.00;;;25.20;99.90;;;;;;5034462;28;20025;-68
2023/09/11 09:09:00;;;;;;;25.20;16.80;;;25.20;99.90;;;;;;5036091;28;20052;-68
2023/09/11 09:11:26;;;;;;;23.95;15.55;;;25.20;99.90;;;;;;5014648;28;20041;-67
2023/09/11 09:13:52;;;;;;;25.88;16.65;;;25.20;99.90;;;;;;5014682;28;20537;-67
2023/09/11 09:16:17;;;;;;;27.40;16.38;;;25.30;99.90;;;;;;5035975;28;20080;-67
2023/09/11 09:18:50;;;;;;;27.55;16.73;;;25.40;99.90;;;;;;5036651;28;20097;-68
2023/09/11 09:21:17;;;;;;;28.55;17.20;;;25.40;99.90;;;;;;5052735;28;20580;-69
2023/09/11 09:23:43;;;;;;;28.02;15.73;;;25.40;99.90;;;;;;5034300;28;20094;-68
2023/09/11 09:26:10;;;;;;;24.02;15.85;;;25.60;99.90;;;;;;5040063;28;20395;-68
2023/09/11 09:28:47;;;;;;;25.80;16.20;;;25.60;99.90;;;;;;5017409;28;20107;-68
2023/09/11 09:31:26;;;;;;;25.83;15.38;;;25.70;99.90;;;;;;5017768;28;20491;-68
2023/09/11 09:33:53;;;;;;;27.38;15.43;;;25.80;99.90;;;;;;5039146;28;20041;-68
2023/09/11 09:36:19;;;;;;;23.48;15.95;;;25.80;99.90;;;;;;5029379;28;20102;-68
2023/09/11 09:38:45;;;;;;;25.23;16.60;;;25.90;99.90;;;;;;5012308;28;20033;-67
2023/09/11 09:41:11;;;;;;;26.52;14.63;;;25.90;99.90;;;;;;5014073;28;20472;-68
2023/09/11 09:43:36;;;;;;;24.88;14.73;;;25.90;99.90;;;;;;5031321;28;20045;-68
2023/09/11 09:46:19;;;;;;;23.98;14.55;;;26.00;99.90;;;;;;5013768;28;20077;-67
2023/09/11 09:48:44;;;;;;;31.13;15.32;;;26.10;99.90;;;;;;5029754;28;20041;-67
2023/09/11 09:51:10;;;;;;;21.90;15.20;;;26.10;99.90;;;;;;5030992;28;20048;-68
2023/09/11 09:53:41;;;;;;;23.98;14.75;;;26.20;99.90;;;;;;5039082;28;20369;-68
2023/09/11 09:56:08;;;;;;;24.75;15.70;;;26.30;99.90;;;;;;5029415;28;20483;-68
2023/09/11 09:58:42;;;;;;;22.83;16.02;;;26.30;99.90;;;;;;5034779;28;20434;-68
2023/09/11 10:01:13;;;;;;;24.00;16.17;;;26.30;99.90;;;;;;5034284;28;20044;-68
2023/09/11 10:03:50;;;;;;;24.08;15.57;;;26.40;99.90;;;;;;5030935;28;20041;-68
2023/09/11 10:06:19;;;;;;;24.02;16.35;;;26.40;99.90;;;;;;5032683;28;20503;-68
2023/09/11 10:08:47;;;;;;;24.80;16.15;;;26.40;99.90;;;;;;5040706;28;20450;-68
2023/09/11 10:11:30;;;;;;;25.17;16.98;;;26.40;99.90;;;;;;5023362;28;20049;-67
2023/09/11 10:13:58;;;;;;;27.48;15.75;;;26.40;99.90;;;;;;5017124;28;20507;-67
2023/09/11 10:16:27;;;;;;;24.92;16.08;;;26.50;99.90;;;;;;5030410;28;20041;-67
2023/09/11 10:18:54;;;;;;;23.60;15.38;;;26.60;99.90;;;;;;5037072;28;20039;-67
2023/09/11 10:21:20;;;;;;;20.75;15.18;;;26.60;99.90;;;;;;5034154;28;20618;-67
2023/09/11 10:23:46;;;;;;;21.27;14.75;;;26.70;99.90;;;;;;5051461;28;20115;-68
2023/09/11 10:26:16;;;;;;;22.77;14.00;;;26.80;99.90;;;;;;5005849;28;20392;-68
2023/09/11 10:28:45;;;;;;;23.48;14.38;;;26.80;99.90;;;;;;5030711;28;20053;-68
2023/09/11 10:31:20;;;;;;;20.02;15.07;;;26.80;99.90;;;;;;5033765;28;20045;-68
2023/09/11 10:33:47;;;;;;;20.88;14.38;;;26.80;99.90;;;;;;5029106;28;20037;-68
2023/09/11 10:36:14;;;;;;;19.80;15.18;;;26.90;99.90;;;;;;5030510;28;20037;-68
2023/09/11 10:38:43;;;;;;;22.35;15.20;;;27.00;99.90;;;;;;5030313;28;20072;-68
2023/09/11 10:41:09;;;;;;;24.33;15.40;;;26.90;99.90;;;;;;5029348;28;20042;-68
2023/09/11 10:43:35;;;;;;;22.00;15.20;;;27.00;99.90;;;;;;5038402;28;20040;-67
2023/09/11 10:46:19;;;;;;;22.00;14.63;;;27.00;99.90;;;;;;5008322;28;20099;-67
2023/09/11 10:48:45;;;;;;;19.90;14.18;;;27.20;99.90;;;;;;5036280;28;20037;-67
2023/09/11 10:51:12;;;;;;;21.60;12.98;;;27.20;99.90;;;;;;5031061;28;20043;-68
2023/09/11 10:53:38;;;;;;;15.40;12.95;;;27.30;99.90;;;;;;5037452;28;20037;-68
2023/09/11 10:56:04;;;;;;;19.85;13.75;;;27.40;99.90;;;;;;5028140;28;20041;-67
2023/09/11 10:58:30;;;;;;;24.20;13.73;;;27.40;99.90;;;;;;5031696;28;20026;-68
2023/09/11 11:00:57;;;;;;;20.63;14.23;;;27.50;99.90;;;;;;5035923;28;20041;-69
2023/09/11 11:03:28;;;;;;;16.55;13.15;;;27.50;99.90;;;;;;5017210;28;20485;-68
2023/09/11 11:05:55;;;;;;;18.08;14.35;;;27.50;99.90;;;;;;5035801;28;20068;-68
2023/09/11 11:08:21;;;;;;;20.98;14.40;;;27.60;99.90;;;;;;5036371;28;20045;-68
2023/09/11 11:10:51;;;;;;;18.83;13.55;;;27.70;99.90;;;;;;5034698;28;20036;-68
2023/09/11 11:13:17;;;;;;;22.73;14.27;;;27.80;99.90;;;;;;5005516;28;20048;-68
2023/09/11 11:15:43;;;;;;;22.77;14.35;;;27.70;99.90;;;;;;5032638;28;20060;-68
2023/09/11 11:18:12;;;;;;;20.98;14.30;;;27.80;99.90;;;;;;5016038;28;20050;-68
2023/09/11 11:21:00;;;;;;;23.13;14.20;;;27.80;99.90;;;;;;5019137;28;20118;-68
2023/09/11 11:23:28;;;;;;;24.17;15.20;;;27.90;99.90;;;;;;5033261;28;20044;-68
2023/09/11 11:25:54;;;;;;;24.05;14.88;;;27.90;99.90;;;;;;5030696;28;20029;-68
2023/09/11 11:28:23;;;;;;;20.98;14.30;;;27.90;99.90;;;;;;5035611;28;20091;-68
2023/09/11 11:30:53;;;;;;;21.42;15.60;;;27.90;99.90;;;;;;5034044;28;20120;-69
2023/09/11 11:33:24;;;;;;;28.83;16.93;;;27.90;99.90;;;;;;5033275;28;20042;-68
2023/09/11 11:35:52;;;;;;;24.73;16.83;;;27.90;99.90;;;;;;5041721;28;20040;-68
2023/09/11 11:38:18;;;;;;;24.08;17.15;;;27.90;99.90;;;;;;5029288;28;20530;-69
2023/09/11 11:40:45;;;;;;;20.25;17.15;;;27.90;99.90;;;;;;5021764;28;20040;-68
2023/09/11 11:43:11;;;;;;;20.33;17.30;;;27.90;99.90;;;;;;5041403;28;20515;-69
2023/09/11 11:45:42;;;;;;;26.27;17.17;;;27.90;99.90;;;;;;5026412;28;20114;-68
2023/09/11 11:48:13;;;;;;;21.08;16.70;;;27.90;99.90;;;;;;5030692;28;20650;-68
2023/09/11 11:50:43;;;;;;;22.33;16.40;;;27.90;99.90;;;;;;5032107;28;20040;-68
2023/09/11 11:53:16;;;;;;;21.88;14.48;;;28.00;99.90;;;;;;5033622;28;20598;-69
2023/09/11 11:55:43;;;;;;;28.58;16.30;;;28.10;99.90;;;;;;5030855;28;20510;-68
2023/09/11 11:58:13;;;;;;;22.17;16.27;;;28.00;99.90;;;;;;5031958;28;20037;-68
2023/09/11 12:00:56;;;;;;;25.27;16.97;;;28.10;99.90;;;;;;5032516;28;20041;-69
2023/09/11 12:03:22;;;;;;;19.45;13.85;;;28.10;99.90;;;;;;5030059;28;20061;-69
2023/09/11 12:05:47;;;;;;;16.67;11.38;;;28.10;99.90;;;;;;5032883;28;20403;-67
2023/09/11 12:08:14;;;;;;;14.00;9.45;;;28.20;99.90;;;;;;5033601;28;20610;-68
2023/09/11 12:10:45;;;;;;;14.77;10.85;;;28.30;99.90;;;;;;5068682;23;20045;-65
2023/09/11 12:13:14;;;;;;;;;;;28.30;99.90;;;;;;4996060;28;20451;-66
2023/09/11 12:15:40;;;;;;;12.48;10.13;;;28.20;99.70;;;;;;4997383;28;19925;-66
2023/09/11 12:18:06;;;;;;;14.18;9.70;;;28.40;99.90;;;;;;5015884;28;20056;-66
2023/09/11 12:20:32;;;;;;;12.85;9.35;;;28.40;99.90;;;;;;5013396;28;20111;-66
2023/09/11 12:23:00;;;;;;;11.57;7.90;;;28.40;99.90;;;;;;5011608;28;20225;-66
2023/09/11 12:25:26;;;;;;;10.05;7.10;;;28.50;99.20;;;;;;5014703;28;20064;-66
2023/09/11 12:27:53;;;;;;;10.57;6.63;;;28.40;99.10;;;;;;4992839;28;20492;-66